Terminal Aerodrome Forecast
Issued by NWS

Home | Current Version | Previous Version | Text Only | Print | Product List | Glossary Off
Versions: 1 2 3 4 5 6 7 8 9 10 11 12 13 14 15 16

000
FTUS43 KMPX 261728
TAFRWF
TAF
KRWF 261728Z 2618/2718 29008KT P6SM SKC
     FM270100 VRB03KT P6SM BKN250
     FM271200 08005KT P6SM VCSH BKN050 BKN100 PROB30 2712/2716 -TSRA
      BKN025CB=

USA.gov is the U.S. government's official web portal to all federal, state and local government web resources and services.